createdAt,value
2018-07-27T00:01:02.586Z,99.90
2018-07-27T00:03:32.428Z,99.90
2018-07-27T00:06:06.527Z,99.90
2018-07-27T00:08:36.007Z,99.90
2018-07-27T00:11:05.907Z,99.90
2018-07-27T00:13:37.027Z,99.90
2018-07-27T00:16:06.646Z,99.90
2018-07-27T00:18:37.147Z,99.90
2018-07-27T00:21:07.187Z,99.90
2018-07-27T00:26:07.088Z,99.90
2018-07-27T00:28:37.567Z,99.90
2018-07-27T00:31:11.447Z,99.90
2018-07-27T00:33:41.627Z,99.90
2018-07-27T00:36:11.606Z,99.90
2018-07-27T00:38:41.149Z,99.90
2018-07-27T00:41:10.823Z,99.90
2018-07-27T00:43:40.703Z,99.90
2018-07-27T00:46:10.620Z,99.90
2018-07-27T00:48:40.661Z,99.90
2018-07-27T00:51:14.924Z,99.90
2018-07-27T00:53:45.000Z,99.90
2018-07-27T00:56:15.000Z,99.90
2018-07-27T00:58:45.160Z,99.90
2018-07-27T01:01:14.944Z,99.90
2018-07-27T01:03:44.884Z,99.90
2018-07-27T01:06:15.044Z,99.90
2018-07-27T01:08:45.184Z,99.90
2018-07-27T01:11:15.324Z,99.90
2018-07-27T01:13:45.084Z,99.90
2018-07-27T01:16:14.804Z,99.90
2018-07-27T01:18:44.822Z,99.90
2018-07-27T01:21:14.818Z,99.90
2018-07-27T01:23:45.518Z,99.90
2018-07-27T01:26:15.099Z,99.90
2018-07-27T01:31:14.258Z,99.90
2018-07-27T01:33:44.039Z,99.90
2018-07-27T01:36:13.881Z,99.90
2018-07-27T01:38:43.879Z,99.90
2018-07-27T01:41:13.398Z,99.90
2018-07-27T01:43:43.478Z,99.90
2018-07-27T01:46:13.119Z,99.90
2018-07-27T01:48:42.558Z,99.90
2018-07-27T01:51:12.259Z,99.90
2018-07-27T01:53:42.498Z,99.90
2018-07-27T01:56:12.458Z,99.90
2018-07-27T01:58:42.179Z,99.90
2018-07-27T02:01:12.039Z,99.90
2018-07-27T02:03:42.360Z,99.90
2018-07-27T02:06:12.079Z,99.90
2018-07-27T02:08:41.919Z,99.90
2018-07-27T02:11:11.838Z,99.90
2018-07-27T02:13:42.298Z,99.90
2018-07-27T02:16:12.758Z,99.90
2018-07-27T02:18:42.278Z,99.90
2018-07-27T02:23:41.304Z,99.90
2018-07-27T02:26:11.118Z,99.90
2018-07-27T02:28:40.598Z,99.90
2018-07-27T02:31:10.458Z,99.90
2018-07-27T02:33:40.518Z,99.90
2018-07-27T02:36:10.618Z,99.90
2018-07-27T02:38:40.162Z,99.90
2018-07-27T02:41:11.980Z,99.90
2018-07-27T02:43:42.178Z,99.90
2018-07-27T02:46:12.318Z,99.90
2018-07-27T02:48:42.279Z,99.90
2018-07-27T02:51:12.061Z,99.90
2018-07-27T02:53:41.758Z,99.90
2018-07-27T02:56:11.359Z,99.90
2018-07-27T02:58:41.258Z,99.90
2018-07-27T03:01:11.041Z,99.90
2018-07-27T03:06:10.218Z,99.90
2018-07-27T03:08:40.298Z,99.90
2018-07-27T03:11:10.098Z,99.90
2018-07-27T03:16:10.239Z,99.90
2018-07-27T03:18:44.198Z,99.90
2018-07-27T03:21:13.759Z,99.90
2018-07-27T03:23:44.981Z,99.90
2018-07-27T03:26:15.039Z,99.90
2018-07-27T03:28:45.378Z,99.90
2018-07-27T03:31:15.559Z,99.90
2018-07-27T03:33:45.140Z,99.90
2018-07-27T03:36:16.225Z,99.90
2018-07-27T03:38:45.760Z,99.90
2018-07-27T03:41:20.859Z,99.90
2018-07-27T03:43:50.526Z,99.90
2018-07-27T03:46:20.559Z,99.90
2018-07-27T03:48:50.179Z,99.90
2018-07-27T03:51:20.158Z,99.90
2018-07-27T03:53:50.379Z,99.90
2018-07-27T03:56:20.158Z,99.90
2018-07-27T03:58:50.600Z,99.90
2018-07-27T04:01:20.242Z,99.90
2018-07-27T04:03:50.480Z,99.90
2018-07-27T04:06:24.599Z,99.90
2018-07-27T04:08:54.200Z,99.90
2018-07-27T04:11:24.017Z,99.90
2018-07-27T04:13:53.880Z,99.90
2018-07-27T04:16:28.200Z,99.90
2018-07-27T04:18:58.080Z,99.90
2018-07-27T04:21:28.680Z,99.90
2018-07-27T04:23:58.639Z,99.90
2018-07-27T04:26:29.080Z,99.90
2018-07-27T04:28:58.860Z,99.90
2018-07-27T04:31:29.320Z,99.90
2018-07-27T04:33:59.141Z,99.90
2018-07-27T04:36:28.960Z,99.90
2018-07-27T04:38:59.520Z,99.90
2018-07-27T04:41:29.381Z,99.90
2018-07-27T04:43:59.680Z,99.90
2018-07-27T04:46:29.279Z,99.90
2018-07-27T04:51:33.640Z,99.90
2018-07-27T04:54:03.560Z,99.60
2018-07-27T04:56:33.821Z,99.90
2018-07-27T04:59:03.639Z,99.90
2018-07-27T05:01:33.482Z,99.90
2018-07-27T05:04:03.439Z,99.90
2018-07-27T05:06:33.759Z,99.90
2018-07-27T05:09:08.840Z,99.90
2018-07-27T05:11:38.720Z,99.90
2018-07-27T05:14:08.559Z,99.90
2018-07-27T05:16:38.379Z,99.90
2018-07-27T05:19:08.519Z,99.90
2018-07-27T05:21:38.299Z,99.90
2018-07-27T05:24:08.238Z,99.90
2018-07-27T05:29:08.318Z,99.90
2018-07-27T05:31:40.955Z,99.80
2018-07-27T05:34:10.963Z,99.70
2018-07-27T05:36:40.688Z,98.70
2018-07-27T05:39:12.599Z,98.80
2018-07-27T05:41:42.542Z,99.10
2018-07-27T05:44:12.159Z,99.50
2018-07-27T05:46:42.177Z,98.50
2018-07-27T05:49:11.839Z,98.40
2018-07-27T05:51:41.736Z,98.10
2018-07-27T05:56:48.676Z,97.30
2018-07-27T05:59:20.813Z,96.60
2018-07-27T06:01:50.081Z,96.30
2018-07-27T06:06:49.200Z,96.00
2018-07-27T06:09:18.714Z,95.50
2018-07-27T06:11:48.179Z,95.80
2018-07-27T06:16:46.880Z,95.50
2018-07-27T06:21:45.661Z,95.10
2018-07-27T06:24:15.427Z,94.40
2018-07-27T06:26:45.481Z,95.00
2018-07-27T06:29:15.307Z,95.00
2018-07-27T06:31:49.161Z,93.80
2018-07-27T06:34:18.821Z,94.90
2018-07-27T06:36:48.341Z,93.90
2018-07-27T06:39:22.192Z,93.60
2018-07-27T06:41:51.781Z,93.00
2018-07-27T06:44:21.223Z,91.80
2018-07-27T06:46:50.902Z,92.30
2018-07-27T06:49:20.981Z,92.20
2018-07-27T06:51:50.641Z,91.80
2018-07-27T06:54:20.542Z,91.50
2018-07-27T07:01:51.721Z,90.00
2018-07-27T07:04:21.861Z,88.70
2018-07-27T07:06:53.781Z,85.80
2018-07-27T07:09:23.866Z,86.90
2018-07-27T07:11:53.766Z,86.90
2018-07-27T07:16:52.661Z,86.30
2018-07-27T07:19:26.241Z,83.20
2018-07-27T07:21:56.241Z,84.20
2018-07-27T07:24:26.001Z,83.00
2018-07-27T07:26:55.642Z,80.10
2018-07-27T07:29:25.222Z,78.30
2018-07-27T07:31:54.941Z,78.40
2018-07-27T07:34:24.621Z,79.80
2018-07-27T07:36:54.161Z,78.20
2018-07-27T07:39:24.027Z,78.10
2018-07-27T07:41:53.602Z,78.70
2018-07-27T07:44:23.421Z,77.30
2018-07-27T07:46:53.763Z,80.10
2018-07-27T07:49:23.899Z,76.90
2018-07-27T07:51:53.543Z,78.80
2018-07-27T07:54:23.401Z,79.90
2018-07-27T07:56:52.921Z,77.90
2018-07-27T07:59:22.501Z,76.60
2018-07-27T08:01:52.401Z,74.90
2018-07-27T08:06:51.880Z,75.50
2018-07-27T08:09:21.662Z,74.30
2018-07-27T08:11:51.420Z,76.60
2018-07-27T08:14:21.121Z,77.20
2018-07-27T08:16:50.861Z,75.60
2018-07-27T08:19:20.681Z,73.30
2018-07-27T08:21:50.461Z,71.60
2018-07-27T08:24:20.182Z,67.70
2018-07-27T08:26:51.240Z,67.60
2018-07-27T08:29:25.192Z,67.40
2018-07-27T08:31:55.661Z,67.70
2018-07-27T08:34:29.480Z,63.70
2018-07-27T08:36:59.439Z,67.20
2018-07-27T08:39:30.601Z,60.80
2018-07-27T08:42:00.223Z,63.80
2018-07-27T08:44:31.402Z,66.00
2018-07-27T08:47:01.081Z,64.70
2018-07-27T08:49:30.820Z,62.50
2018-07-27T08:52:01.303Z,65.70
2018-07-27T08:54:31.001Z,69.80
2018-07-27T08:57:00.881Z,69.70
2018-07-27T08:59:30.560Z,67.00
2018-07-27T09:02:00.425Z,65.00
2018-07-27T09:04:34.586Z,66.70
2018-07-27T09:07:05.051Z,68.30
2018-07-27T09:09:34.871Z,69.00
2018-07-27T09:12:09.502Z,65.30
2018-07-27T09:14:39.391Z,65.20
2018-07-27T09:17:10.161Z,68.00
2018-07-27T09:19:40.151Z,67.70
2018-07-27T09:24:45.560Z,66.60
2018-07-27T09:27:15.182Z,64.90
2018-07-27T09:29:45.383Z,64.70
2018-07-27T09:32:14.959Z,65.90
2018-07-27T09:34:48.899Z,65.40
2018-07-27T09:37:18.783Z,65.40
2018-07-27T09:39:48.522Z,64.90
2018-07-27T09:42:19.180Z,65.60
2018-07-27T09:44:49.020Z,60.40
2018-07-27T09:47:18.604Z,62.20
2018-07-27T09:49:48.224Z,60.20
2018-07-27T09:52:17.947Z,60.40
2018-07-27T09:54:47.270Z,60.50
2018-07-27T09:57:16.782Z,58.80
2018-07-27T09:59:46.261Z,60.40
2018-07-27T10:02:15.901Z,58.90
2018-07-27T10:04:45.348Z,58.00
2018-07-27T10:07:14.776Z,59.00
2018-07-27T10:09:44.962Z,60.70
2018-07-27T10:12:14.782Z,61.60
2018-07-27T10:14:44.524Z,56.70
2018-07-27T10:17:14.242Z,56.70
2018-07-27T10:19:44.202Z,53.60
2018-07-27T10:22:14.463Z,56.10
2018-07-27T10:24:44.902Z,59.20
2018-07-27T10:27:14.507Z,58.90
2018-07-27T10:29:44.102Z,54.90
2018-07-27T10:32:13.802Z,55.30
2018-07-27T10:34:43.541Z,55.10
2018-07-27T10:37:13.701Z,57.80
2018-07-27T10:39:43.381Z,52.50
2018-07-27T10:42:13.083Z,53.50
2018-07-27T10:44:42.842Z,52.50
2018-07-27T10:47:12.722Z,53.90
2018-07-27T10:49:42.341Z,53.60
2018-07-27T10:52:11.901Z,52.00
2018-07-27T10:54:41.638Z,54.50
2018-07-27T10:57:11.382Z,57.80
2018-07-27T10:59:41.182Z,53.50
2018-07-27T11:02:14.863Z,56.10
2018-07-27T11:04:44.562Z,54.80
2018-07-27T11:09:52.089Z,51.80
2018-07-27T11:12:21.985Z,50.10
2018-07-27T11:17:21.408Z,52.10
2018-07-27T11:19:55.241Z,52.70
2018-07-27T11:22:25.001Z,53.50
2018-07-27T11:27:24.483Z,53.90
2018-07-27T11:29:53.942Z,53.40
2018-07-27T11:32:23.682Z,54.20
2018-07-27T11:34:53.212Z,55.00
2018-07-27T11:37:23.390Z,55.70
2018-07-27T11:39:53.359Z,58.50
2018-07-27T11:42:23.449Z,56.60
2018-07-27T11:44:53.206Z,58.90
2018-07-27T11:47:23.042Z,58.20
2018-07-27T11:52:26.406Z,58.80
2018-07-27T11:55:00.401Z,59.50
2018-07-27T11:57:30.203Z,60.70
2018-07-27T11:59:59.721Z,61.80
2018-07-27T12:02:29.442Z,60.70
2018-07-27T12:04:59.161Z,59.90
2018-07-27T12:07:28.785Z,59.90
2018-07-27T12:09:58.321Z,57.70
2018-07-27T12:12:28.181Z,57.30
2018-07-27T12:14:57.929Z,58.60
2018-07-27T12:17:27.281Z,60.20
2018-07-27T12:19:57.122Z,58.90
2018-07-27T12:22:26.661Z,58.80
2018-07-27T12:24:56.321Z,58.30
2018-07-27T12:27:26.341Z,59.30
2018-07-27T12:29:55.981Z,61.30
2018-07-27T12:32:25.964Z,58.00
2018-07-27T12:34:56.080Z,57.20
2018-07-27T12:37:25.842Z,56.70
2018-07-27T12:39:55.603Z,55.90
2018-07-27T12:44:59.300Z,55.90
2018-07-27T12:47:28.942Z,55.00
2018-07-27T12:49:58.542Z,52.70
2018-07-27T12:52:28.261Z,53.80
2018-07-27T12:54:58.161Z,53.70
2018-07-27T12:57:27.681Z,53.30
2018-07-27T12:59:58.422Z,51.50
2018-07-27T13:02:28.224Z,51.30
2018-07-27T13:04:57.761Z,52.30
2018-07-27T13:07:28.011Z,53.10
2018-07-27T13:10:02.648Z,50.90
2018-07-27T13:12:33.050Z,52.20
2018-07-27T13:15:02.722Z,51.70
2018-07-27T13:17:32.870Z,52.60
2018-07-27T13:20:02.589Z,52.30
2018-07-27T13:22:32.074Z,52.50
2018-07-27T13:25:01.781Z,52.00
2018-07-27T13:27:31.805Z,52.80
2018-07-27T13:30:01.642Z,53.30
2018-07-27T13:32:31.501Z,52.00
2018-07-27T13:35:02.168Z,49.80
2018-07-27T13:37:33.082Z,51.50
2018-07-27T13:40:04.062Z,51.00
2018-07-27T13:42:35.483Z,48.60
2018-07-27T13:45:05.723Z,49.80
2018-07-27T13:47:36.403Z,51.60
2018-07-27T13:50:06.443Z,50.80
2018-07-27T13:52:36.121Z,52.30
2018-07-27T13:55:05.562Z,52.60
2018-07-27T13:57:35.269Z,54.40
2018-07-27T14:00:05.084Z,52.90
2018-07-27T14:02:40.726Z,52.40
2018-07-27T14:05:14.720Z,53.50
2018-07-27T14:07:44.724Z,54.50
2018-07-27T14:10:14.544Z,53.70
2018-07-27T14:12:44.521Z,54.30
2018-07-27T14:15:14.081Z,54.30
2018-07-27T14:17:43.601Z,55.00
2018-07-27T14:20:13.461Z,56.70
2018-07-27T14:22:43.140Z,55.30
2018-07-27T14:25:13.000Z,56.60
2018-07-27T14:27:42.601Z,56.60
2018-07-27T14:30:17.353Z,56.00
2018-07-27T14:32:47.040Z,57.30
2018-07-27T14:37:45.680Z,58.20
2018-07-27T14:40:15.429Z,58.20
2018-07-27T14:42:46.461Z,57.40
2018-07-27T14:45:16.187Z,59.20
2018-07-27T14:47:45.920Z,60.50
2018-07-27T14:50:15.680Z,60.90
2018-07-27T14:52:45.626Z,59.50
2018-07-27T14:55:15.368Z,59.40
2018-07-27T14:57:45.021Z,60.70
2018-07-27T15:00:16.492Z,60.40
2018-07-27T15:02:46.584Z,58.90
2018-07-27T15:05:16.542Z,59.00
2018-07-27T15:07:46.302Z,60.20
2018-07-27T15:10:16.010Z,59.80
2018-07-27T15:12:45.781Z,59.80
2018-07-27T15:15:15.927Z,60.30
2018-07-27T15:17:45.702Z,61.00
2018-07-27T15:20:15.429Z,61.30
2018-07-27T15:22:45.520Z,62.10
2018-07-27T15:25:15.121Z,60.10
2018-07-27T15:27:45.984Z,61.40
2018-07-27T15:30:15.684Z,60.20
2018-07-27T15:32:45.524Z,62.10
2018-07-27T15:35:15.261Z,60.80
2018-07-27T15:37:45.022Z,61.20
2018-07-27T15:40:14.682Z,61.20
2018-07-27T15:42:44.551Z,62.10
2018-07-27T15:45:14.564Z,61.60
2018-07-27T15:50:17.984Z,59.60
2018-07-27T15:55:21.327Z,59.80
2018-07-27T15:57:51.162Z,59.30
2018-07-27T16:00:24.328Z,59.80
2018-07-27T16:02:54.427Z,58.90
2018-07-27T16:05:24.226Z,60.20
2018-07-27T16:07:58.166Z,60.60
2018-07-27T16:10:36.147Z,60.40
2018-07-27T16:13:06.286Z,60.50
2018-07-27T16:15:40.231Z,60.10
2018-07-27T16:18:09.980Z,59.20
2018-07-27T16:20:40.160Z,59.00
2018-07-27T16:23:10.341Z,60.90
2018-07-27T16:25:40.221Z,62.60
2018-07-27T16:28:09.860Z,62.80
2018-07-27T16:30:40.063Z,64.20
2018-07-27T16:33:09.718Z,63.70
2018-07-27T16:35:39.579Z,63.40
2018-07-27T16:38:09.359Z,63.70
2018-07-27T16:40:39.098Z,63.70
2018-07-27T16:43:08.861Z,64.60
2018-07-27T16:45:38.501Z,65.60
2018-07-27T16:48:13.501Z,66.60
2018-07-27T16:50:43.060Z,66.90
2018-07-27T16:53:12.919Z,67.00
2018-07-27T16:55:42.753Z,67.30
2018-07-27T17:00:46.119Z,68.40
2018-07-27T17:03:15.482Z,69.80
2018-07-27T17:05:44.783Z,68.50
2018-07-27T17:08:14.502Z,69.10
2018-07-27T17:10:44.141Z,70.00
2018-07-27T17:13:13.562Z,70.40
2018-07-27T17:15:43.421Z,69.70
2018-07-27T17:18:12.961Z,70.00
2018-07-27T17:20:42.481Z,70.20
2018-07-27T17:23:13.061Z,70.90
2018-07-27T17:25:42.916Z,70.60
2018-07-27T17:28:13.201Z,71.10
2018-07-27T17:30:42.621Z,71.30
2018-07-27T17:33:11.941Z,71.80
2018-07-27T17:35:41.305Z,72.00
2018-07-27T17:38:10.904Z,72.60
2018-07-27T17:40:40.290Z,72.90
2018-07-27T17:43:09.705Z,71.90
2018-07-27T17:45:39.221Z,72.90
2018-07-27T17:48:08.643Z,73.10
2018-07-27T17:50:38.030Z,73.80
2018-07-27T17:53:07.475Z,73.90
2018-07-27T17:55:36.975Z,73.90
2018-07-27T17:58:06.655Z,74.30
2018-07-27T18:00:36.005Z,74.60
2018-07-27T18:03:05.478Z,75.10
2018-07-27T18:05:35.196Z,75.30
2018-07-27T18:08:04.859Z,75.50
2018-07-27T18:10:34.376Z,75.40
2018-07-27T18:13:04.409Z,75.70
2018-07-27T18:15:33.836Z,75.60
2018-07-27T18:18:03.297Z,76.10
2018-07-27T18:20:32.497Z,76.90
2018-07-27T18:23:02.036Z,77.60
2018-07-27T18:25:31.523Z,79.70
2018-07-27T18:28:01.122Z,80.10
2018-07-27T18:30:30.523Z,81.60
2018-07-27T18:35:30.090Z,80.40
2018-07-27T18:38:00.042Z,80.20
2018-07-27T18:40:29.601Z,80.10
2018-07-27T18:45:28.043Z,80.40
2018-07-27T18:47:57.261Z,80.90
2018-07-27T18:50:26.917Z,81.60
2018-07-27T18:52:57.121Z,82.00
2018-07-27T18:55:27.241Z,82.40
2018-07-27T18:57:57.476Z,83.00
2018-07-27T19:00:26.555Z,83.60
2018-07-27T19:02:55.918Z,84.80
2018-07-27T19:05:25.846Z,85.30
2018-07-27T19:07:55.239Z,85.50
2018-07-27T19:10:25.005Z,85.40
2018-07-27T19:12:55.077Z,84.90
2018-07-27T19:15:24.959Z,85.00
2018-07-27T19:17:54.377Z,84.90
2018-07-27T19:20:24.077Z,85.60
2018-07-27T19:22:53.737Z,85.60
2018-07-27T19:25:24.035Z,85.80
2018-07-27T19:27:53.716Z,86.10
2018-07-27T19:30:23.398Z,86.20
2018-07-27T19:32:53.327Z,86.30
2018-07-27T19:35:22.679Z,87.50
2018-07-27T19:37:52.162Z,88.60
2018-07-27T19:40:21.697Z,89.00
2018-07-27T19:42:51.476Z,89.50
2018-07-27T19:45:21.178Z,90.00
2018-07-27T19:47:50.789Z,90.00
2018-07-27T19:50:20.781Z,90.40
2018-07-27T19:52:50.437Z,90.50
2018-07-27T19:55:19.740Z,90.80
2018-07-27T19:57:50.791Z,91.00
2018-07-27T20:00:20.648Z,91.00
2018-07-27T20:02:50.232Z,91.00
2018-07-27T20:05:19.714Z,91.50
2018-07-27T20:07:49.457Z,91.00
2018-07-27T20:10:18.799Z,90.80
2018-07-27T20:12:48.135Z,90.90
2018-07-27T20:15:17.836Z,91.10
2018-07-27T20:17:47.324Z,91.80
2018-07-27T20:20:17.317Z,92.20
2018-07-27T20:22:47.198Z,92.80
2018-07-27T20:25:16.776Z,92.20
2018-07-27T20:27:46.236Z,92.50
2018-07-27T20:30:15.999Z,93.30
2018-07-27T20:32:45.795Z,93.30
2018-07-27T20:35:15.510Z,93.40
2018-07-27T20:37:45.597Z,93.40
2018-07-27T20:40:15.601Z,93.50
2018-07-27T20:43:05.243Z,93.70
2018-07-27T20:45:59.442Z,93.70
2018-07-27T20:48:52.741Z,93.90
2018-07-27T20:52:38.196Z,94.20
2018-07-27T20:55:34.547Z,94.20
2018-07-27T20:58:20.683Z,94.40
2018-07-27T21:01:15.643Z,94.50
2018-07-27T21:12:01.903Z,94.70
2018-07-27T21:14:31.179Z,94.30
2018-07-27T21:17:00.399Z,94.20
2018-07-27T21:22:58.401Z,94.10
2018-07-27T21:25:27.560Z,94.30
2018-07-27T21:27:56.585Z,94.50
2018-07-27T21:30:25.567Z,94.60
2018-07-27T21:32:54.991Z,94.90
2018-07-27T21:37:53.968Z,95.30
2018-07-27T21:40:23.524Z,95.80
2018-07-27T21:42:53.159Z,95.90
2018-07-27T21:45:22.824Z,96.10
2018-07-27T21:47:53.903Z,96.30
2018-07-27T21:50:23.421Z,96.40
2018-07-27T21:53:03.957Z,96.60
2018-07-27T21:55:36.799Z,96.70
2018-07-27T21:58:09.381Z,96.90
2018-07-27T22:00:57.227Z,97.10
2018-07-27T22:03:26.410Z,97.50
2018-07-27T22:05:55.725Z,97.70
2018-07-27T22:08:24.681Z,98.00
2018-07-27T22:10:53.756Z,98.30
2018-07-27T22:13:22.831Z,99.00
2018-07-27T22:15:51.802Z,99.40
2018-07-27T22:18:20.913Z,99.90
2018-07-27T22:20:55.911Z,99.90
2018-07-27T22:23:31.781Z,99.80
2018-07-27T22:26:05.649Z,99.70
2018-07-27T22:28:37.336Z,99.80
2018-07-27T22:31:10.702Z,99.70
2018-07-27T22:33:40.049Z,99.60
2018-07-27T22:36:09.041Z,99.70
2018-07-27T22:38:38.051Z,99.70
2018-07-27T22:41:07.211Z,99.80
2018-07-27T22:43:36.464Z,99.70
2018-07-27T22:46:05.597Z,99.70
2018-07-27T22:48:34.954Z,99.60
2018-07-27T22:51:04.597Z,99.60
2018-07-27T22:53:33.757Z,99.40
2018-07-27T22:56:02.981Z,99.40
2018-07-27T22:58:32.156Z,99.50
2018-07-27T23:01:01.320Z,99.80
2018-07-27T23:03:30.577Z,99.90
2018-07-27T23:06:00.935Z,99.90
2018-07-27T23:08:30.283Z,99.90
2018-07-27T23:11:03.605Z,99.90
2018-07-27T23:13:32.878Z,99.90
2018-07-27T23:16:02.077Z,99.90
2018-07-27T23:18:31.195Z,99.90
2018-07-27T23:21:00.392Z,99.90
2018-07-27T23:23:29.598Z,99.90
2018-07-27T23:25:58.684Z,99.90
2018-07-27T23:28:28.017Z,99.90
2018-07-27T23:30:57.146Z,99.90
2018-07-27T23:33:26.302Z,99.90
2018-07-27T23:35:55.565Z,99.90
2018-07-27T23:38:24.900Z,99.90
2018-07-27T23:40:54.100Z,99.90
2018-07-27T23:43:23.316Z,99.90
2018-07-27T23:45:52.583Z,99.90
2018-07-27T23:48:21.778Z,99.90
2018-07-27T23:50:51.517Z,99.90
2018-07-27T23:53:20.637Z,99.90
2018-07-27T23:55:49.836Z,99.90
2018-07-27T23:58:19.076Z,99.90
